Etusivu
METAR-TAF:

METAR-TAF

Lentoasemat :

Don Muangin kansainvälinen lentoasema

Bangkok, Thaimaa

Leveyspiiri: 13-54-45N, Pituuspiiri: 100-36-24E, korkeus merenpinnasta: 4 m

Tämänhetkinen sää

Tämä raportti tehtiin 21 minuuttia sitten, kello 21.30 UTC
Tuuli 4 kn pohjoisen/luoteesta
Lämpötila 28°C
Kosteus 79%
Ilmanpaine 1011 hPa
Näkyvyys 10 km tai enemmän
Muutamia pilviä 3000 ft:n korkeudessa

METAR: VTBD 192130Z 34004KT 9999 FEW030 28/24 Q1011 NOSIG

Aika: 04:51 (21:51 UTC)

Sääennuste

Tämä raportti tehtiin 4 tuntia ja 51 minuuttia sitten, kello 17.00 UTC
Ennuste voimassa 19. päivästä klo 18 UTC - 20. päivään klo 24 UTC
Tuuli 8 kn idästä/koillisesta
Näkyvyys 10 km tai enemmän
Muutamia pilviä 2500 ft:n korkeudessa
Tulossa
20. päivästä klo 18 UTC - 20. päivään klo 20 UTC
Tuuli 5 kn pohjoisesta

TAF: VTBD 191700Z 1918/2024 07008KT 9999 FEW025 BECMG 2018/2020 01005KT

Säähavainnot ja -ennusteet yli 4000 lentoasemalta (METAR- ja TAF-raportit).

Käytössä olevat sääasemat on merkitty karttaan keltaisilla ja punaisilla pisteillä.

Aseta hiiri pisteen päälle nähdäksesi sääaseman nimen.

Klikkaa sitten nähdäksesi säähavainnot ja -ennusteet.

Kartan vaihtaminen: klikkaa mustalla rastilla varustettuja vihreitä pisteitä, niin voit zoomata sisään; viivalla varustettua vihreää pistettä, niin voit zoomata ulos tai vihreitä nuolia, niin pääset viereisille kartoille.


METAR-TAF: